Airfield :
LOGIN :

Register | Disclaimer

   EN    FR    IT 

 










Legend :    VFR   Marginal VFR   IFR   Intensive IFR   Very Intensive IFR
Visi :
Ceiling :
>= 8 km
>= 3000ft
5 to 8 km
1000 to 3000 ft
1500m to 5 km
500 to 1000 ft
800 to 1500m
200 to 500 ft
< 800m
< 200 ft
Symbols :   Thunderstorms  Fog  Heavy snow  Heavy precipitations  Wind > 20 kt
SIGMETs :     Misc.  Thunderstorms  Icing  Turbulence  Mountain Waves  Volcanic Ashes






- Airport Elevation : 79 ft
- IATA code : NSY


LICZ - Sigonella (Mil) Catania

CURRENT METAR :
  • 241255Z 10005KT 6000 SCT025 BKN070 13/11 Q1028 RMK BKN VIS MIN 6000 WIND THR28 10005KT WIND THR10 09005KT A3038 WHT

EXPIRED METARs :
  • 241155Z 09003KT 6000 SCT025 BKN070 13/11 Q1029 RMK BKN VIS MIN 6000 WIND THR28 10003KT WIND THR10 08003KT A3040 WHT
  • 241055Z 09004KT 5000 BR SCT020 BKN070 13/11 Q1030 RMK BKN VIS MIN 5000 WIND THR28 09003KT WIND THR10 08003KT A3043 WHT

TAF TAF LICZ
Valid from the 24 at 12:00 until the 25 at 12:00 UTC


241100Z 2412/2512 09006KT 7000 SCT020 BKN060
TEMPO 2412/2421 5000 BR
BECMG 2420/2422 27005KT
TEMPO 2500/2506 1000 FG SCT005



MET'MAP, your aeronautical weather chart ! - Copyright ORBIFLY December 2007 - Disclaimer

ORBIFLY MET'MAP TEAM :

Programming & Development : Alexandra Zaïnal
Concept & original design : Baudouin d'Aumeries
Assistance for programming : Marc-Olivier Méhu
Technical & hardware support : Manuel Goepfert

Contact : metmap@orbifly.com




SOURCES & CREDITS :

   NOAA